sensor_id;sensor_type;location;lat;lon;timestamp;P1;durP1;ratioP1;P2;durP2;ratioP2
69401;SDS011;56589;51.992;5.924;2023-06-10T00:00:00;7.47;;;4.40;;
69401;SDS011;56589;51.992;5.924;2023-06-10T00:02:26;6.32;;;4.32;;
69401;SDS011;56589;51.992;5.924;2023-06-10T00:04:52;6.88;;;4.70;;
69401;SDS011;56589;51.992;5.924;2023-06-10T00:07:18;7.13;;;4.22;;
69401;SDS011;56589;51.992;5.924;2023-06-10T00:09:44;8.88;;;5.07;;
69401;SDS011;56589;51.992;5.924;2023-06-10T00:12:10;8.88;;;4.50;;
69401;SDS011;56589;51.992;5.924;2023-06-10T00:14:37;6.00;;;4.15;;
69401;SDS011;56589;51.992;5.924;2023-06-10T00:17:08;5.25;;;4.30;;
69401;SDS011;56589;51.992;5.924;2023-06-10T00:19:33;6.70;;;4.35;;
69401;SDS011;56589;51.992;5.924;2023-06-10T00:21:59;6.28;;;4.35;;
69401;SDS011;56589;51.992;5.924;2023-06-10T00:24:25;8.32;;;4.30;;
69401;SDS011;56589;51.992;5.924;2023-06-10T00:26:51;5.72;;;4.22;;
69401;SDS011;56589;51.992;5.924;2023-06-10T00:29:17;10.05;;;4.85;;
69401;SDS011;56589;51.992;5.924;2023-06-10T00:31:44;6.82;;;5.55;;
69401;SDS011;56589;51.992;5.924;2023-06-10T00:34:13;5.78;;;3.90;;
69401;SDS011;56589;51.992;5.924;2023-06-10T00:36:39;5.10;;;3.83;;
69401;SDS011;56589;51.992;5.924;2023-06-10T00:39:04;9.07;;;4.53;;
69401;SDS011;56589;51.992;5.924;2023-06-10T00:41:30;6.15;;;4.47;;
69401;SDS011;56589;51.992;5.924;2023-06-10T00:43:56;7.72;;;4.00;;
69401;SDS011;56589;51.992;5.924;2023-06-10T00:46:22;8.23;;;4.40;;
69401;SDS011;56589;51.992;5.924;2023-06-10T00:48:51;5.38;;;4.10;;
69401;SDS011;56589;51.992;5.924;2023-06-10T00:51:20;9.05;;;4.05;;
69401;SDS011;56589;51.992;5.924;2023-06-10T00:53:47;8.65;;;4.18;;
69401;SDS011;56589;51.992;5.924;2023-06-10T00:56:14;5.43;;;4.40;;
69401;SDS011;56589;51.992;5.924;2023-06-10T00:58:40;6.97;;;4.15;;
69401;SDS011;56589;51.992;5.924;2023-06-10T01:01:06;6.45;;;4.07;;
69401;SDS011;56589;51.992;5.924;2023-06-10T01:03:32;8.38;;;4.05;;
69401;SDS011;56589;51.992;5.924;2023-06-10T01:05:59;7.30;;;3.72;;
69401;SDS011;56589;51.992;5.924;2023-06-10T01:08:38;9.80;;;4.60;;
69401;SDS011;56589;51.992;5.924;2023-06-10T01:11:16;7.30;;;4.32;;
69401;SDS011;56589;51.992;5.924;2023-06-10T01:13:48;6.32;;;4.03;;
69401;SDS011;56589;51.992;5.924;2023-06-10T01:16:15;8.32;;;4.00;;
69401;SDS011;56589;51.992;5.924;2023-06-10T01:18:42;6.55;;;4.25;;
69401;SDS011;56589;51.992;5.924;2023-06-10T01:21:08;7.57;;;3.97;;
69401;SDS011;56589;51.992;5.924;2023-06-10T01:23:36;5.60;;;4.22;;
69401;SDS011;56589;51.992;5.924;2023-06-10T01:26:03;7.05;;;4.47;;
69401;SDS011;56589;51.992;5.924;2023-06-10T01:28:36;7.60;;;4.10;;
69401;SDS011;56589;51.992;5.924;2023-06-10T01:31:13;9.57;;;3.92;;
69401;SDS011;56589;51.992;5.924;2023-06-10T01:33:46;6.35;;;3.85;;
69401;SDS011;56589;51.992;5.924;2023-06-10T01:36:17;8.20;;;4.38;;
69401;SDS011;56589;51.992;5.924;2023-06-10T01:38:50;8.85;;;4.47;;
69401;SDS011;56589;51.992;5.924;2023-06-10T01:41:19;5.93;;;3.65;;
69401;SDS011;56589;51.992;5.924;2023-06-10T01:43:46;7.30;;;3.95;;
69401;SDS011;56589;51.992;5.924;2023-06-10T01:46:13;9.02;;;4.05;;
69401;SDS011;56589;51.992;5.924;2023-06-10T01:48:39;9.38;;;3.78;;
69401;SDS011;56589;51.992;5.924;2023-06-10T01:51:06;5.05;;;3.38;;
69401;SDS011;56589;51.992;5.924;2023-06-10T01:53:32;7.32;;;4.30;;
69401;SDS011;56589;51.992;5.924;2023-06-10T01:56:01;6.88;;;3.88;;
69401;SDS011;56589;51.992;5.924;2023-06-10T01:58:27;7.00;;;4.25;;
69401;SDS011;56589;51.992;5.924;2023-06-10T02:00:52;5.28;;;3.70;;
69401;SDS011;56589;51.992;5.924;2023-06-10T02:03:18;6.93;;;3.92;;
69401;SDS011;56589;51.992;5.924;2023-06-10T02:05:44;9.48;;;4.47;;
69401;SDS011;56589;51.992;5.924;2023-06-10T02:08:10;6.45;;;4.22;;
69401;SDS011;56589;51.992;5.924;2023-06-10T02:10:36;6.20;;;3.83;;
69401;SDS011;56589;51.992;5.924;2023-06-10T02:13:04;6.43;;;4.22;;
69401;SDS011;56589;51.992;5.924;2023-06-10T02:15:30;9.10;;;4.40;;
69401;SDS011;56589;51.992;5.924;2023-06-10T02:17:56;6.93;;;4.00;;
69401;SDS011;56589;51.992;5.924;2023-06-10T02:20:22;7.38;;;4.32;;
69401;SDS011;56589;51.992;5.924;2023-06-10T02:22:47;6.68;;;3.90;;
69401;SDS011;56589;51.992;5.924;2023-06-10T02:25:13;6.57;;;4.18;;
69401;SDS011;56589;51.992;5.924;2023-06-10T02:27:39;8.25;;;4.93;;
69401;SDS011;56589;51.992;5.924;2023-06-10T02:30:08;5.63;;;3.60;;
69401;SDS011;56589;51.992;5.924;2023-06-10T02:32:35;6.32;;;3.90;;
69401;SDS011;56589;51.992;5.924;2023-06-10T02:35:01;9.63;;;4.43;;
69401;SDS011;56589;51.992;5.924;2023-06-10T02:37:28;5.60;;;3.90;;
69401;SDS011;56589;51.992;5.924;2023-06-10T02:39:53;7.32;;;4.40;;
69401;SDS011;56589;51.992;5.924;2023-06-10T02:42:19;8.73;;;4.07;;
69401;SDS011;56589;51.992;5.924;2023-06-10T02:44:45;6.82;;;4.40;;
69401;SDS011;56589;51.992;5.924;2023-06-10T02:47:13;6.03;;;4.07;;
69401;SDS011;56589;51.992;5.924;2023-06-10T02:49:39;10.35;;;4.10;;
69401;SDS011;56589;51.992;5.924;2023-06-10T02:52:05;10.63;;;4.63;;
69401;SDS011;56589;51.992;5.924;2023-06-10T02:54:32;7.40;;;4.03;;
69401;SDS011;56589;51.992;5.924;2023-06-10T02:56:58;8.30;;;4.32;;
69401;SDS011;56589;51.992;5.924;2023-06-10T02:59:23;7.97;;;4.50;;
69401;SDS011;56589;51.992;5.924;2023-06-10T03:01:49;8.00;;;3.83;;
69401;SDS011;56589;51.992;5.924;2023-06-10T03:04:17;6.95;;;4.07;;
69401;SDS011;56589;51.992;5.924;2023-06-10T03:06:43;8.68;;;4.47;;
69401;SDS011;56589;51.992;5.924;2023-06-10T03:09:09;11.93;;;4.78;;
69401;SDS011;56589;51.992;5.924;2023-06-10T03:11:35;10.85;;;4.30;;
69401;SDS011;56589;51.992;5.924;2023-06-10T03:14:01;7.65;;;4.13;;
69401;SDS011;56589;51.992;5.924;2023-06-10T03:16:26;7.35;;;4.53;;
69401;SDS011;56589;51.992;5.924;2023-06-10T03:18:52;8.60;;;4.10;;
69401;SDS011;56589;51.992;5.924;2023-06-10T03:21:21;6.35;;;4.15;;
69401;SDS011;56589;51.992;5.924;2023-06-10T03:23:48;7.63;;;4.05;;
69401;SDS011;56589;51.992;5.924;2023-06-10T03:26:13;7.35;;;3.83;;
69401;SDS011;56589;51.992;5.924;2023-06-10T03:28:39;7.38;;;3.92;;
69401;SDS011;56589;51.992;5.924;2023-06-10T03:31:05;7.00;;;4.20;;
69401;SDS011;56589;51.992;5.924;2023-06-10T03:33:31;6.90;;;4.15;;
69401;SDS011;56589;51.992;5.924;2023-06-10T03:35:57;6.13;;;3.67;;
69401;SDS011;56589;51.992;5.924;2023-06-10T03:38:25;6.03;;;4.00;;
69401;SDS011;56589;51.992;5.924;2023-06-10T03:40:51;7.75;;;4.30;;
69401;SDS011;56589;51.992;5.924;2023-06-10T03:43:17;6.65;;;3.95;;
69401;SDS011;56589;51.992;5.924;2023-06-10T03:45:43;8.13;;;4.05;;
69401;SDS011;56589;51.992;5.924;2023-06-10T03:48:09;6.53;;;3.92;;
69401;SDS011;56589;51.992;5.924;2023-06-10T03:50:34;5.75;;;3.63;;
69401;SDS011;56589;51.992;5.924;2023-06-10T03:53:00;7.55;;;3.88;;
69401;SDS011;56589;51.992;5.924;2023-06-10T03:55:29;7.07;;;3.80;;
69401;SDS011;56589;51.992;5.924;2023-06-10T03:57:54;5.82;;;3.80;;
69401;SDS011;56589;51.992;5.924;2023-06-10T04:00:20;9.68;;;4.30;;
69401;SDS011;56589;51.992;5.924;2023-06-10T04:02:46;6.90;;;4.05;;
69401;SDS011;56589;51.992;5.924;2023-06-10T04:05:12;7.95;;;4.53;;
69401;SDS011;56589;51.992;5.924;2023-06-10T04:07:40;11.52;;;4.35;;
69401;SDS011;56589;51.992;5.924;2023-06-10T04:10:07;8.35;;;4.85;;
69401;SDS011;56589;51.992;5.924;2023-06-10T04:12:36;8.73;;;4.45;;
69401;SDS011;56589;51.992;5.924;2023-06-10T04:15:03;8.40;;;4.53;;
69401;SDS011;56589;51.992;5.924;2023-06-10T04:17:31;8.32;;;4.10;;
69401;SDS011;56589;51.992;5.924;2023-06-10T04:19:57;7.40;;;3.80;;
69401;SDS011;56589;51.992;5.924;2023-06-10T04:22:23;11.32;;;4.88;;
69401;SDS011;56589;51.992;5.924;2023-06-10T04:24:49;10.63;;;4.40;;
69401;SDS011;56589;51.992;5.924;2023-06-10T04:27:15;6.85;;;3.80;;
69401;SDS011;56589;51.992;5.924;2023-06-10T04:29:44;6.28;;;3.72;;
69401;SDS011;56589;51.992;5.924;2023-06-10T04:32:09;10.60;;;5.03;;
69401;SDS011;56589;51.992;5.924;2023-06-10T04:34:36;9.05;;;4.60;;
69401;SDS011;56589;51.992;5.924;2023-06-10T04:37:02;8.45;;;3.75;;
69401;SDS011;56589;51.992;5.924;2023-06-10T04:39:29;6.35;;;4.03;;
69401;SDS011;56589;51.992;5.924;2023-06-10T04:41:54;9.40;;;4.43;;
69401;SDS011;56589;51.992;5.924;2023-06-10T04:44:20;8.38;;;4.57;;
69401;SDS011;56589;51.992;5.924;2023-06-10T04:46:49;6.72;;;3.95;;
69401;SDS011;56589;51.992;5.924;2023-06-10T04:49:14;6.18;;;3.72;;
69401;SDS011;56589;51.992;5.924;2023-06-10T04:51:40;6.47;;;4.00;;
69401;SDS011;56589;51.992;5.924;2023-06-10T04:54:06;8.13;;;4.20;;
69401;SDS011;56589;51.992;5.924;2023-06-10T04:56:32;9.05;;;3.92;;
69401;SDS011;56589;51.992;5.924;2023-06-10T04:58:58;8.63;;;4.75;;
69401;SDS011;56589;51.992;5.924;2023-06-10T05:01:27;7.25;;;4.32;;
69401;SDS011;56589;51.992;5.924;2023-06-10T05:03:55;6.82;;;3.50;;
69401;SDS011;56589;51.992;5.924;2023-06-10T05:06:21;7.63;;;4.28;;
69401;SDS011;56589;51.992;5.924;2023-06-10T05:08:47;7.80;;;3.97;;
69401;SDS011;56589;51.992;5.924;2023-06-10T05:11:13;6.70;;;4.45;;
69401;SDS011;56589;51.992;5.924;2023-06-10T05:13:38;7.97;;;3.80;;
69401;SDS011;56589;51.992;5.924;2023-06-10T05:16:04;8.70;;;4.40;;
69401;SDS011;56589;51.992;5.924;2023-06-10T05:18:30;6.80;;;4.25;;
69401;SDS011;56589;51.992;5.924;2023-06-10T05:20:58;10.70;;;4.25;;
69401;SDS011;56589;51.992;5.924;2023-06-10T05:23:24;7.28;;;3.55;;
69401;SDS011;56589;51.992;5.924;2023-06-10T05:25:50;6.30;;;3.85;;
69401;SDS011;56589;51.992;5.924;2023-06-10T05:28:16;5.20;;;3.75;;
69401;SDS011;56589;51.992;5.924;2023-06-10T05:30:42;5.93;;;3.53;;
69401;SDS011;56589;51.992;5.924;2023-06-10T05:33:07;7.75;;;4.38;;
69401;SDS011;56589;51.992;5.924;2023-06-10T05:35:33;7.53;;;4.53;;
69401;SDS011;56589;51.992;5.924;2023-06-10T05:38:02;10.07;;;4.00;;
69401;SDS011;56589;51.992;5.924;2023-06-10T05:40:28;7.43;;;3.78;;
69401;SDS011;56589;51.992;5.924;2023-06-10T05:42:54;8.45;;;4.10;;
69401;SDS011;56589;51.992;5.924;2023-06-10T05:45:20;6.65;;;4.30;;
69401;SDS011;56589;51.992;5.924;2023-06-10T05:47:45;8.13;;;4.38;;
69401;SDS011;56589;51.992;5.924;2023-06-10T05:50:11;9.52;;;4.20;;
69401;SDS011;56589;51.992;5.924;2023-06-10T05:52:37;8.57;;;3.90;;
69401;SDS011;56589;51.992;5.924;2023-06-10T05:55:06;6.03;;;3.63;;
69401;SDS011;56589;51.992;5.924;2023-06-10T05:57:33;7.80;;;4.00;;
69401;SDS011;56589;51.992;5.924;2023-06-10T05:59:59;7.40;;;4.00;;
69401;SDS011;56589;51.992;5.924;2023-06-10T06:02:25;5.57;;;3.70;;
69401;SDS011;56589;51.992;5.924;2023-06-10T06:04:51;5.35;;;4.10;;
69401;SDS011;56589;51.992;5.924;2023-06-10T06:07:17;11.25;;;3.90;;
69401;SDS011;56589;51.992;5.924;2023-06-10T06:09:43;5.75;;;3.53;;
69401;SDS011;56589;51.992;5.924;2023-06-10T06:12:11;9.82;;;3.90;;
69401;SDS011;56589;51.992;5.924;2023-06-10T06:14:38;7.18;;;4.30;;
69401;SDS011;56589;51.992;5.924;2023-06-10T06:17:04;6.45;;;3.63;;
69401;SDS011;56589;51.992;5.924;2023-06-10T06:19:30;6.88;;;4.10;;
69401;SDS011;56589;51.992;5.924;2023-06-10T06:21:56;6.10;;;3.92;;
69401;SDS011;56589;51.992;5.924;2023-06-10T06:24:22;7.30;;;4.28;;
69401;SDS011;56589;51.992;5.924;2023-06-10T06:26:48;7.25;;;3.80;;
69401;SDS011;56589;51.992;5.924;2023-06-10T06:29:19;6.10;;;3.63;;
69401;SDS011;56589;51.992;5.924;2023-06-10T06:31:44;5.00;;;3.53;;
69401;SDS011;56589;51.992;5.924;2023-06-10T06:34:10;7.38;;;3.83;;
69401;SDS011;56589;51.992;5.924;2023-06-10T06:36:36;5.45;;;3.60;;
69401;SDS011;56589;51.992;5.924;2023-06-10T06:39:02;8.23;;;3.95;;
69401;SDS011;56589;51.992;5.924;2023-06-10T06:41:28;4.43;;;3.35;;
69401;SDS011;56589;51.992;5.924;2023-06-10T06:43:54;6.93;;;4.10;;
69401;SDS011;56589;51.992;5.924;2023-06-10T06:46:23;5.55;;;3.55;;
69401;SDS011;56589;51.992;5.924;2023-06-10T06:48:49;7.07;;;3.80;;
69401;SDS011;56589;51.992;5.924;2023-06-10T06:51:14;6.05;;;3.63;;
69401;SDS011;56589;51.992;5.924;2023-06-10T06:53:40;5.68;;;3.60;;
69401;SDS011;56589;51.992;5.924;2023-06-10T06:56:06;5.22;;;3.70;;
69401;SDS011;56589;51.992;5.924;2023-06-10T06:58:32;5.75;;;3.55;;
69401;SDS011;56589;51.992;5.924;2023-06-10T07:00:58;5.25;;;3.53;;
69401;SDS011;56589;51.992;5.924;2023-06-10T07:03:26;7.97;;;3.73;;
69401;SDS011;56589;51.992;5.924;2023-06-10T07:05:52;4.50;;;3.45;;
69401;SDS011;56589;51.992;5.924;2023-06-10T07:08:17;5.93;;;3.90;;
69401;SDS011;56589;51.992;5.924;2023-06-10T07:10:43;5.47;;;3.42;;
69401;SDS011;56589;51.992;5.924;2023-06-10T07:13:09;5.82;;;3.97;;
69401;SDS011;56589;51.992;5.924;2023-06-10T07:15:35;6.45;;;4.03;;
69401;SDS011;56589;51.992;5.924;2023-06-10T07:18:01;5.70;;;3.70;;
69401;SDS011;56589;51.992;5.924;2023-06-10T07:20:29;4.78;;;3.55;;
69401;SDS011;56589;51.992;5.924;2023-06-10T07:22:55;4.63;;;3.03;;
69401;SDS011;56589;51.992;5.924;2023-06-10T07:25:20;5.78;;;3.53;;
69401;SDS011;56589;51.992;5.924;2023-06-10T07:27:46;7.45;;;3.58;;
69401;SDS011;56589;51.992;5.924;2023-06-10T07:30:12;4.07;;;3.17;;
69401;SDS011;56589;51.992;5.924;2023-06-10T07:32:38;6.25;;;3.30;;
69401;SDS011;56589;51.992;5.924;2023-06-10T07:35:05;7.03;;;3.50;;
69401;SDS011;56589;51.992;5.924;2023-06-10T07:37:37;10.10;;;3.28;;
69401;SDS011;56589;51.992;5.924;2023-06-10T07:40:03;7.63;;;3.38;;
69401;SDS011;56589;51.992;5.924;2023-06-10T07:42:30;5.95;;;4.00;;
69401;SDS011;56589;51.992;5.924;2023-06-10T07:44:57;7.22;;;4.10;;
69401;SDS011;56589;51.992;5.924;2023-06-10T07:47:23;7.05;;;3.88;;
69401;SDS011;56589;51.992;5.924;2023-06-10T07:49:48;6.53;;;3.28;;
69401;SDS011;56589;51.992;5.924;2023-06-10T07:52:14;4.93;;;3.05;;
69401;SDS011;56589;51.992;5.924;2023-06-10T07:54:43;4.03;;;2.80;;
69401;SDS011;56589;51.992;5.924;2023-06-10T07:57:08;8.80;;;3.60;;
69401;SDS011;56589;51.992;5.924;2023-06-10T07:59:34;6.68;;;3.30;;
69401;SDS011;56589;51.992;5.924;2023-06-10T08:02:00;9.77;;;3.03;;
69401;SDS011;56589;51.992;5.924;2023-06-10T08:04:26;5.30;;;3.55;;
69401;SDS011;56589;51.992;5.924;2023-06-10T08:06:51;6.68;;;3.25;;
69401;SDS011;56589;51.992;5.924;2023-06-10T08:09:17;6.88;;;3.38;;
69401;SDS011;56589;51.992;5.924;2023-06-10T08:11:46;5.85;;;3.20;;
69401;SDS011;56589;51.992;5.924;2023-06-10T08:14:12;7.05;;;3.25;;
69401;SDS011;56589;51.992;5.924;2023-06-10T08:16:38;5.15;;;3.17;;
69401;SDS011;56589;51.992;5.924;2023-06-10T08:19:03;6.60;;;3.47;;
69401;SDS011;56589;51.992;5.924;2023-06-10T08:21:29;5.80;;;3.60;;
69401;SDS011;56589;51.992;5.924;2023-06-10T08:23:55;6.10;;;3.25;;
69401;SDS011;56589;51.992;5.924;2023-06-10T08:26:21;5.50;;;3.03;;
69401;SDS011;56589;51.992;5.924;2023-06-10T08:28:49;6.53;;;3.08;;
69401;SDS011;56589;51.992;5.924;2023-06-10T08:31:15;7.82;;;3.38;;
69401;SDS011;56589;51.992;5.924;2023-06-10T08:33:41;4.47;;;3.03;;
69401;SDS011;56589;51.992;5.924;2023-06-10T08:36:07;7.05;;;3.75;;
69401;SDS011;56589;51.992;5.924;2023-06-10T08:38:33;6.88;;;2.97;;
69401;SDS011;56589;51.992;5.924;2023-06-10T08:40:59;6.43;;;3.55;;
69401;SDS011;56589;51.992;5.924;2023-06-10T08:43:28;5.25;;;3.13;;
69401;SDS011;56589;51.992;5.924;2023-06-10T08:46:04;6.03;;;3.20;;
69401;SDS011;56589;51.992;5.924;2023-06-10T08:48:35;7.65;;;3.00;;
69401;SDS011;56589;51.992;5.924;2023-06-10T08:51:07;5.13;;;3.33;;
69401;SDS011;56589;51.992;5.924;2023-06-10T08:53:36;8.60;;;4.38;;
69401;SDS011;56589;51.992;5.924;2023-06-10T08:56:12;9.55;;;3.40;;
69401;SDS011;56589;51.992;5.924;2023-06-10T08:58:40;8.05;;;3.20;;
69401;SDS011;56589;51.992;5.924;2023-06-10T09:01:09;5.45;;;3.30;;
69401;SDS011;56589;51.992;5.924;2023-06-10T09:03:37;6.88;;;3.40;;
69401;SDS011;56589;51.992;5.924;2023-06-10T09:06:04;3.67;;;2.80;;
69401;SDS011;56589;51.992;5.924;2023-06-10T09:08:31;8.85;;;3.40;;
69401;SDS011;56589;51.992;5.924;2023-06-10T09:10:58;6.50;;;3.30;;
69401;SDS011;56589;51.992;5.924;2023-06-10T09:13:24;4.45;;;3.30;;
69401;SDS011;56589;51.992;5.924;2023-06-10T09:15:50;5.65;;;3.63;;
69401;SDS011;56589;51.992;5.924;2023-06-10T09:18:19;5.50;;;3.55;;
69401;SDS011;56589;51.992;5.924;2023-06-10T09:20:45;6.97;;;3.53;;
69401;SDS011;56589;51.992;5.924;2023-06-10T09:23:11;5.25;;;3.45;;
69401;SDS011;56589;51.992;5.924;2023-06-10T09:25:39;9.02;;;3.25;;
69401;SDS011;56589;51.992;5.924;2023-06-10T09:28:08;6.43;;;3.30;;
69401;SDS011;56589;51.992;5.924;2023-06-10T09:30:39;7.63;;;3.13;;
69401;SDS011;56589;51.992;5.924;2023-06-10T09:33:09;5.25;;;3.17;;
69401;SDS011;56589;51.992;5.924;2023-06-10T09:35:45;7.10;;;3.45;;
69401;SDS011;56589;51.992;5.924;2023-06-10T09:38:12;4.95;;;3.42;;
69401;SDS011;56589;51.992;5.924;2023-06-10T09:40:48;4.57;;;3.17;;
69401;SDS011;56589;51.992;5.924;2023-06-10T09:43:15;4.57;;;3.33;;
69401;SDS011;56589;51.992;5.924;2023-06-10T09:45:41;7.78;;;2.90;;
69401;SDS011;56589;51.992;5.924;2023-06-10T09:48:06;4.90;;;2.97;;
69401;SDS011;56589;51.992;5.924;2023-06-10T09:50:32;5.38;;;3.05;;
69401;SDS011;56589;51.992;5.924;2023-06-10T09:53:01;5.25;;;3.00;;
69401;SDS011;56589;51.992;5.924;2023-06-10T09:55:28;5.43;;;3.33;;
69401;SDS011;56589;51.992;5.924;2023-06-10T09:57:58;5.07;;;2.90;;
69401;SDS011;56589;51.992;5.924;2023-06-10T10:00:24;6.95;;;3.42;;
69401;SDS011;56589;51.992;5.924;2023-06-10T10:02:51;6.10;;;3.10;;
69401;SDS011;56589;51.992;5.924;2023-06-10T10:05:19;5.80;;;2.97;;
69401;SDS011;56589;51.992;5.924;2023-06-10T10:07:46;5.00;;;3.30;;
69401;SDS011;56589;51.992;5.924;2023-06-10T10:10:16;6.13;;;3.58;;
69401;SDS011;56589;51.992;5.924;2023-06-10T10:12:45;4.25;;;3.00;;
69401;SDS011;56589;51.992;5.924;2023-06-10T10:15:13;3.67;;;2.67;;
69401;SDS011;56589;51.992;5.924;2023-06-10T10:17:44;7.32;;;2.83;;
69401;SDS011;56589;51.992;5.924;2023-06-10T10:20:17;5.32;;;2.60;;
69401;SDS011;56589;51.992;5.924;2023-06-10T10:22:51;5.22;;;3.17;;
69401;SDS011;56589;51.992;5.924;2023-06-10T10:25:26;4.75;;;2.83;;
69401;SDS011;56589;51.992;5.924;2023-06-10T10:28:02;4.43;;;2.92;;
69401;SDS011;56589;51.992;5.924;2023-06-10T10:30:34;4.18;;;2.70;;
69401;SDS011;56589;51.992;5.924;2023-06-10T10:33:09;5.30;;;2.50;;
69401;SDS011;56589;51.992;5.924;2023-06-10T10:35:43;3.25;;;2.63;;
69401;SDS011;56589;51.992;5.924;2023-06-10T10:38:10;3.85;;;2.80;;
69401;SDS011;56589;51.992;5.924;2023-06-10T10:40:39;5.25;;;2.90;;
69401;SDS011;56589;51.992;5.924;2023-06-10T10:43:07;4.35;;;2.67;;
69401;SDS011;56589;51.992;5.924;2023-06-10T10:45:35;6.35;;;2.95;;
69401;SDS011;56589;51.992;5.924;2023-06-10T10:48:05;4.97;;;2.90;;
69401;SDS011;56589;51.992;5.924;2023-06-10T10:50:34;4.88;;;2.42;;
69401;SDS011;56589;51.992;5.924;2023-06-10T10:53:01;4.97;;;2.70;;
69401;SDS011;56589;51.992;5.924;2023-06-10T10:55:28;4.30;;;2.88;;
69401;SDS011;56589;51.992;5.924;2023-06-10T10:57:58;4.65;;;2.75;;
69401;SDS011;56589;51.992;5.924;2023-06-10T11:00:28;4.40;;;2.50;;
69401;SDS011;56589;51.992;5.924;2023-06-10T11:02:57;4.40;;;2.97;;
69401;SDS011;56589;51.992;5.924;2023-06-10T11:05:32;4.57;;;2.80;;
69401;SDS011;56589;51.992;5.924;2023-06-10T11:08:03;4.90;;;2.58;;
69401;SDS011;56589;51.992;5.924;2023-06-10T11:10:29;5.55;;;2.40;;
69401;SDS011;56589;51.992;5.924;2023-06-10T11:12:59;6.50;;;2.70;;
69401;SDS011;56589;51.992;5.924;2023-06-10T11:15:30;5.50;;;3.03;;
69401;SDS011;56589;51.992;5.924;2023-06-10T11:20:55;4.82;;;2.80;;
69401;SDS011;56589;51.992;5.924;2023-06-10T11:26:14;6.38;;;3.10;;
69401;SDS011;56589;51.992;5.924;2023-06-10T11:29:04;4.50;;;2.83;;
69401;SDS011;56589;51.992;5.924;2023-06-10T11:31:38;3.83;;;2.70;;
69401;SDS011;56589;51.992;5.924;2023-06-10T11:34:06;5.80;;;2.85;;
69401;SDS011;56589;51.992;5.924;2023-06-10T11:36:34;6.60;;;2.58;;
69401;SDS011;56589;51.992;5.924;2023-06-10T11:39:04;6.10;;;3.65;;
69401;SDS011;56589;51.992;5.924;2023-06-10T11:41:31;8.40;;;3.08;;
69401;SDS011;56589;51.992;5.924;2023-06-10T11:44:01;4.13;;;2.88;;
69401;SDS011;56589;51.992;5.924;2023-06-10T11:46:34;3.58;;;2.72;;
69401;SDS011;56589;51.992;5.924;2023-06-10T11:49:00;5.43;;;3.28;;
69401;SDS011;56589;51.992;5.924;2023-06-10T11:51:28;4.63;;;2.97;;
69401;SDS011;56589;51.992;5.924;2023-06-10T11:53:57;6.13;;;3.90;;
69401;SDS011;56589;51.992;5.924;2023-06-10T11:56:24;5.75;;;2.80;;
69401;SDS011;56589;51.992;5.924;2023-06-10T11:58:52;4.63;;;2.97;;
69401;SDS011;56589;51.992;5.924;2023-06-10T12:01:22;6.97;;;3.45;;
69401;SDS011;56589;51.992;5.924;2023-06-10T12:03:58;4.55;;;3.08;;
69401;SDS011;56589;51.992;5.924;2023-06-10T12:06:26;5.50;;;2.90;;
69401;SDS011;56589;51.992;5.924;2023-06-10T12:08:52;5.90;;;3.22;;
69401;SDS011;56589;51.992;5.924;2023-06-10T12:11:19;5.18;;;3.03;;
69401;SDS011;56589;51.992;5.924;2023-06-10T12:13:45;4.93;;;3.20;;
69401;SDS011;56589;51.992;5.924;2023-06-10T12:16:13;5.30;;;3.00;;
69401;SDS011;56589;51.992;5.924;2023-06-10T12:18:42;4.88;;;2.90;;
69401;SDS011;56589;51.992;5.924;2023-06-10T12:21:15;3.28;;;2.67;;
69401;SDS011;56589;51.992;5.924;2023-06-10T12:26:34;9.10;;;2.80;;
69401;SDS011;56589;51.992;5.924;2023-06-10T12:31:58;7.43;;;3.78;;
69401;SDS011;56589;51.992;5.924;2023-06-10T12:34:35;6.45;;;2.92;;
69401;SDS011;56589;51.992;5.924;2023-06-10T12:37:03;5.35;;;3.65;;
69401;SDS011;56589;51.992;5.924;2023-06-10T12:39:30;3.70;;;2.83;;
69401;SDS011;56589;51.992;5.924;2023-06-10T12:41:57;4.00;;;3.00;;
69401;SDS011;56589;51.992;5.924;2023-06-10T12:44:33;5.93;;;3.28;;
69401;SDS011;56589;51.992;5.924;2023-06-10T12:47:00;4.85;;;3.08;;
69401;SDS011;56589;51.992;5.924;2023-06-10T12:49:35;5.93;;;3.33;;
69401;SDS011;56589;51.992;5.924;2023-06-10T12:52:01;7.55;;;2.95;;
69401;SDS011;56589;51.992;5.924;2023-06-10T12:54:27;7.03;;;3.20;;
69401;SDS011;56589;51.992;5.924;2023-06-10T12:56:53;4.93;;;3.00;;
69401;SDS011;56589;51.992;5.924;2023-06-10T12:59:19;7.00;;;3.42;;
69401;SDS011;56589;51.992;5.924;2023-06-10T13:01:49;4.88;;;3.20;;
69401;SDS011;56589;51.992;5.924;2023-06-10T13:04:16;4.10;;;2.78;;
69401;SDS011;56589;51.992;5.924;2023-06-10T13:06:44;5.95;;;3.30;;
69401;SDS011;56589;51.992;5.924;2023-06-10T13:09:10;6.75;;;3.25;;
69401;SDS011;56589;51.992;5.924;2023-06-10T13:11:36;4.15;;;3.20;;
69401;SDS011;56589;51.992;5.924;2023-06-10T13:14:02;4.55;;;2.88;;
69401;SDS011;56589;51.992;5.924;2023-06-10T13:16:29;4.93;;;3.25;;
69401;SDS011;56589;51.992;5.924;2023-06-10T13:18:56;4.65;;;3.22;;
69401;SDS011;56589;51.992;5.924;2023-06-10T13:21:22;6.15;;;3.20;;
69401;SDS011;56589;51.992;5.924;2023-06-10T13:23:50;6.18;;;3.45;;
69401;SDS011;56589;51.992;5.924;2023-06-10T13:26:16;5.88;;;3.03;;
69401;SDS011;56589;51.992;5.924;2023-06-10T13:28:42;7.93;;;3.50;;
69401;SDS011;56589;51.992;5.924;2023-06-10T13:31:08;3.75;;;2.83;;
69401;SDS011;56589;51.992;5.924;2023-06-10T13:33:34;6.07;;;3.30;;
69401;SDS011;56589;51.992;5.924;2023-06-10T13:36:00;8.20;;;3.30;;
69401;SDS011;56589;51.992;5.924;2023-06-10T13:38:25;5.07;;;3.00;;
69401;SDS011;56589;51.992;5.924;2023-06-10T13:40:54;5.30;;;3.05;;
69401;SDS011;56589;51.992;5.924;2023-06-10T13:43:20;7.40;;;3.25;;
69401;SDS011;56589;51.992;5.924;2023-06-10T13:45:45;5.00;;;3.00;;
69401;SDS011;56589;51.992;5.924;2023-06-10T13:48:11;4.22;;;3.30;;
69401;SDS011;56589;51.992;5.924;2023-06-10T13:50:37;6.45;;;3.08;;
69401;SDS011;56589;51.992;5.924;2023-06-10T13:53:03;4.93;;;3.20;;
69401;SDS011;56589;51.992;5.924;2023-06-10T13:55:29;5.38;;;3.35;;
69401;SDS011;56589;51.992;5.924;2023-06-10T13:57:57;7.32;;;3.20;;
69401;SDS011;56589;51.992;5.924;2023-06-10T14:00:23;4.32;;;3.38;;
69401;SDS011;56589;51.992;5.924;2023-06-10T14:02:49;5.28;;;3.17;;
69401;SDS011;56589;51.992;5.924;2023-06-10T14:05:15;4.50;;;3.10;;
69401;SDS011;56589;51.992;5.924;2023-06-10T14:07:41;6.22;;;3.47;;
69401;SDS011;56589;51.992;5.924;2023-06-10T14:10:07;6.32;;;3.40;;
69401;SDS011;56589;51.992;5.924;2023-06-10T14:12:33;6.90;;;3.15;;
69401;SDS011;56589;51.992;5.924;2023-06-10T14:15:02;6.03;;;3.05;;
69401;SDS011;56589;51.992;5.924;2023-06-10T14:17:29;3.63;;;3.28;;
69401;SDS011;56589;51.992;5.924;2023-06-10T14:19:55;5.55;;;3.42;;
69401;SDS011;56589;51.992;5.924;2023-06-10T14:22:20;4.05;;;2.97;;
69401;SDS011;56589;51.992;5.924;2023-06-10T14:24:46;4.57;;;3.10;;
69401;SDS011;56589;51.992;5.924;2023-06-10T14:27:12;4.82;;;3.17;;
69401;SDS011;56589;51.992;5.924;2023-06-10T14:29:38;4.25;;;3.00;;
69401;SDS011;56589;51.992;5.924;2023-06-10T14:32:07;4.35;;;3.28;;
69401;SDS011;56589;51.992;5.924;2023-06-10T14:34:33;5.82;;;3.22;;
69401;SDS011;56589;51.992;5.924;2023-06-10T14:36:58;5.88;;;3.65;;
69401;SDS011;56589;51.992;5.924;2023-06-10T14:39:24;4.95;;;3.05;;
69401;SDS011;56589;51.992;5.924;2023-06-10T14:41:50;4.57;;;3.35;;
69401;SDS011;56589;51.992;5.924;2023-06-10T14:44:16;5.68;;;3.30;;
69401;SDS011;56589;51.992;5.924;2023-06-10T14:46:42;5.57;;;3.35;;
69401;SDS011;56589;51.992;5.924;2023-06-10T14:49:10;4.68;;;3.28;;
69401;SDS011;56589;51.992;5.924;2023-06-10T14:51:36;5.22;;;3.13;;
69401;SDS011;56589;51.992;5.924;2023-06-10T14:54:02;3.40;;;3.00;;
69401;SDS011;56589;51.992;5.924;2023-06-10T14:56:28;4.03;;;3.22;;
69401;SDS011;56589;51.992;5.924;2023-06-10T14:58:54;4.45;;;2.88;;